Monday, December 22, 2014
00:36 UTC
  |  Log In   |  Register Free
Airport Search:

Akron-Canton Regional Airport
(KCAK)

FAA data valid effective November 13, 2014 - January 08, 2015 (unless otherwise noted).

 
 
 
 
 
 
 
 
 
 
 
 
 
 

Current Aviation Weather for Akron-Canton Regional Airport (KCAK)

The most recent METAR observation for KCAK was updated at: 2112
METAR Summary (Translated METAR)
KCAK
182051Z 27005KT 10SM OVC015 M02/M06 A3016 RMK AO2 SNE32 SLP227 P0000 60000 T10171061 55001
KAKR
182054Z AUTO 27006KT 10SM OVC017 M01/M06 A3016 RMK AO2 SLP222 T10111056 55001 $
(7.4 nm NW from KCAK)
KPOV
182122Z AUTO 25005KT 10SM M02/M06 A3015 RMK AO2 T10171060
(19.7 nm NE from KCAK)
TAF Summary (Translated TAF)
KCAK
211731Z 2118/2218 18004KT P6SM OVC025 FM212100 15004KT P6SM BKN025 OVC035 FM220200 12005KT P6SM SCT035 OVC250 TEMPO 2210/2213 4SM BR FM221500 15008KT P6SM FEW030 BKN250
  Airport Weather Conditions for KCAK

 Current Weather at CAK
28° F
Overcast
East winds at 4.6 mph
CAK NOAA Radar

Pressure: 30.22 in
Humidity: 72%
Wind: East at 4.6 MPH (4 KT)
Dew Point: 19.9°F
Visibility: 8.00 mi


Airport Weather Forecast for KCAK

Translated METAR and TAF for KCAK
Translated METAR for KCAK (0037 UTC 22 December 2014)
found at http://aviationweather.gov/adds/metars/
 
METAR text: KCAK 212351Z 10004KT 8SM OVC022 M02/M07 A3022 RMK AO2 SLP249 T10221067 11006 21022 58003
Conditions at: KCAK (AKRON , OH, US) observed 2351 UTC 21 December 2014
Temperature: -2.2°C (28°F)
Dewpoint: -6.7°C (20°F) [RH = 71%]
Pressure (altimeter): 30.22 inches Hg (1023.5 mb)
[Sea-level pressure: 1024.9 mb]
Winds: from the E (100 degrees) at 5 MPH (4 knots; 2.1 m/s)
Visibility: 8 miles (13 km)
Ceiling: 2200 feet AGL
Clouds: overcast cloud deck at 2200 feet AGL
Weather: no significant weather observed at this time
Translated TAF for KCAK
Forecast for: KCAK (AKRON , OH, US)
TAF Text: KCAK 212324Z 2200/2224 12005KT P6SM OVC022
Forecast period: 0000 to 0400 UTC 22 December 2014
Forecast type: FROM: standard forecast or significant change
Winds: from the ESE (120 degrees) at 6 MPH (5 knots; 2.6 m/s)
Visibility: 6 or more miles (10+ km)
Ceiling: 2200 feet AGL
Clouds: overcast cloud deck at 2200 feet AGL
Weather: no significant weather forecast for this period
TAF Text: FM220400 12005KT 6SM BR SCT020 BKN250
Forecast period: 0400 to 0600 UTC 22 December 2014
Forecast type: FROM: standard forecast or significant change
Winds: from the ESE (120 degrees) at 6 MPH (5 knots; 2.6 m/s)
Visibility: 6 miles (10 km)
Ceiling: 25000 feet AGL
Clouds: scattered clouds at 2000 feet AGL
broken clouds at 25000 feet AGL
Weather: BR  (mist)
TAF Text: TEMPO 2204/2206 4SM BR
Forecast period: 0400 to 0600 UTC 22 December 2014
Forecast type: TEMPORARY: The following changes expected for less than half the time period
Visibility: 4 miles (6 km)
Weather: BR  (mist)
TAF Text: FM220600 12005KT 5SM BR SCT020 BKN250
Forecast period: 0600 to 1400 UTC 22 December 2014
Forecast type: FROM: standard forecast or significant change
Winds: from the ESE (120 degrees) at 6 MPH (5 knots; 2.6 m/s)
Visibility: 5 miles (8 km)
Ceiling: 25000 feet AGL
Clouds: scattered clouds at 2000 feet AGL
broken clouds at 25000 feet AGL
Weather: BR  (mist)
TAF Text: TEMPO 2209/2213 3SM BR BKN020
Forecast period: 0900 to 1300 UTC 22 December 2014
Forecast type: TEMPORARY: The following changes expected for less than half the time period
Visibility: 3 miles (5 km)
Ceiling: 2000 feet AGL
Clouds: broken clouds at 2000 feet AGL
Weather: BR  (mist)
TAF Text: FM221400 14006KT P6SM SCT040 BKN120
Forecast period: 1400 to 1800 UTC 22 December 2014
Forecast type: FROM: standard forecast or significant change
Winds: from the SE (140 degrees) at 7 MPH (6 knots; 3.1 m/s)
Visibility: 6 or more miles (10+ km)
Ceiling: 12000 feet AGL
Clouds: scattered clouds at 4000 feet AGL
broken clouds at 12000 feet AGL
Weather: no significant weather forecast for this period
TAF Text: FM221800 14006KT P6SM BKN035
Forecast period: 1800 to 2200 UTC 22 December 2014
Forecast type: FROM: standard forecast or significant change
Winds: from the SE (140 degrees) at 7 MPH (6 knots; 3.1 m/s)
Visibility: 6 or more miles (10+ km)
Ceiling: 3500 feet AGL
Clouds: broken clouds at 3500 feet AGL
Weather: no significant weather forecast for this period
TAF Text: FM222200 14008KT P6SM OVC025
Forecast period: 2200 UTC 22 December 2014 to 0000 UTC 23 December 2014
Forecast type: FROM: standard forecast or significant change
Winds: from the SE (140 degrees) at 9 MPH (8 knots; 4.2 m/s)
Visibility: 6 or more miles (10+ km)
Ceiling: 2500 feet AGL
Clouds: overcast cloud deck at 2500 feet AGL
Weather: no significant weather forecast for this period

Find All Airport Services Find A Hotel Find A Rental Car Find A Golf Course Find A Restaurant $100 Hamburger



FBO's on the Field
FBO Company Facility Photos Services Transportation Aviation Fuel Prices: Prices include tax
Catering Weather Repair Courtesy Rental Type 100LL JetA JetA+ MOGAS 8087
 
Avflight Akron-Canton

This FBO has not yet been rated
FS:
Last Updated: Dec-19
Login to update fuel prices
SS:
Contact Avflight Akron-CantonMore FBO Information
 
McKinley Air, Inc.

Currently rated 4.4 by 4 people
FS:Phillips 66
Last Updated: Nov-25
Login to update fuel prices
SS:
Contact McKinley Air, Inc.More FBO Information
 
Add another FBO Facility Photos Catering Weather Repair Courtesy Rental Type 100LL JetA JetA+ MOGAS 8087
Services Transportation Aviation Fuel Prices: Prices include tax


model-print
model-print
model-print
model-print